KHUM

Houma-Terrebonne Airport

Houma, Louisiana, USA
METAR KHUM 231555Z 15008KT 7SM SCT020 BKN040 24/22 A3027
Observed Flight Rules
Feb-23 @ 15:55 UTC (37 minutes ago) Visual Flight Rules
Wind Visibility Clouds
150° at 8 knots 7 miles
  • Scattered at 2,000' AGL
  • Broken at 4,000' AGL
Temperatures Readings
Current 24°C / 75°F
Dewpoint 22°C / 72°F
Humidity 89%
Altimeter 30.27" Hg
Pressure 1025 hPa
Elevation 3
METAR KHUM 231555Z 15008KT 7SM SCT020 BKN040 24/22 A3027
Observed Flight Rules
Feb-23 @ 15:55 UTC
(37 minutes ago)
VFR
Wind Visibility
150° at 8 knots 7 miles
Clouds
  • Scattered at 2,000' AGL
  • Broken at 4,000' AGL
Temperature Dewpoint
24°C / 75°F 22°C / 72°F
Humidity Altimeter Pressure
89% 30.27" Hg 1025 hPa